Eastern Sierra Regional Airport
KBIH : now visible

Airfield :











YOU CAN JOIN US ON...

 
LOGIN :

Register | Disclaimer

   EN    FR    IT 

 









Legend :    VFR   Marginal VFR   IFR   Intensive IFR   Very Intensive IFR
Visi :
Ceiling :
>= 8 km
>= 3000ft
5 to 8 km
1000 to 3000 ft
1500m to 5 km
500 to 1000 ft
800 to 1500m
200 to 500 ft
< 800m
< 200 ft
Symbols :   Thunderstorms  Fog  Heavy snow  Heavy precipitations  Wind > 20 kt







- Airport Elevation : 4124 ft


KBIH - Eastern Sierra Regional

CURRENT METAR :
  • 211056Z AUTO 34007KT 10SM CLR 03/M04 A2973 RMK AO2 SLP038 T00281044

EXPIRED METARs :
  • 210956Z AUTO 00000KT 10SM CLR 04/M04 A2973 RMK AO2 SLP040 T00441044
  • 210856Z AUTO 06003KT 10SM CLR 07/M06 A2977 RMK AO2 SLP051 T00671056 56014

TAF KBIH
Valid from the 21 at 06:00 until the 22 at 06:00 UTC


210520Z 2106/2206 32011KT P6SM BKN250
FM211600 34017G27KT P6SM FEW100 SCT150
FM220200 36010G18KT P6SM SCT070 BKN110
KZOA FIR / North America



MET'MAP, your aeronautical weather chart ! - Copyright ORBIFLY December 2007 - Disclaimer

ORBIFLY MET'MAP TEAM :

Programming & Development : Alexandra Zaïnal
Concept & Development : Baudouin d'Aumeries
Co-Development & Prog : Marc-Olivier Méhu
Technical & hardware support : Manuel Goepfert

Contact : metmap@orbifly.com




SOURCES & CREDITS :

   NOAA       Earth
Advisory